sensor_id;sensor_type;location;lat;lon;timestamp;temperature;humidity
18173;DHT22;9211;48.818;9.312;2023-02-05T00:00:44;3.20;99.90
18173;DHT22;9211;48.818;9.312;2023-02-05T00:03:10;3.30;99.90
18173;DHT22;9211;48.818;9.312;2023-02-05T00:05:37;3.30;99.90
18173;DHT22;9211;48.818;9.312;2023-02-05T00:08:06;3.30;99.90
18173;DHT22;9211;48.818;9.312;2023-02-05T00:10:33;3.30;99.90
18173;DHT22;9211;48.818;9.312;2023-02-05T00:13:00;3.40;99.90
18173;DHT22;9211;48.818;9.312;2023-02-05T00:15:27;3.40;99.90
18173;DHT22;9211;48.818;9.312;2023-02-05T00:17:54;3.40;99.90
18173;DHT22;9211;48.818;9.312;2023-02-05T00:20:21;3.40;99.90
18173;DHT22;9211;48.818;9.312;2023-02-05T00:22:48;3.40;99.90
18173;DHT22;9211;48.818;9.312;2023-02-05T00:25:16;3.30;99.90
18173;DHT22;9211;48.818;9.312;2023-02-05T00:27:43;3.30;99.90
18173;DHT22;9211;48.818;9.312;2023-02-05T00:30:11;3.30;99.90
18173;DHT22;9211;48.818;9.312;2023-02-05T00:32:38;3.40;99.90
18173;DHT22;9211;48.818;9.312;2023-02-05T00:35:05;3.30;99.90
18173;DHT22;9211;48.818;9.312;2023-02-05T00:37:32;3.40;99.90
18173;DHT22;9211;48.818;9.312;2023-02-05T00:39:59;3.30;99.90
18173;DHT22;9211;48.818;9.312;2023-02-05T00:42:29;3.30;99.90
18173;DHT22;9211;48.818;9.312;2023-02-05T00:44:56;3.40;99.90
18173;DHT22;9211;48.818;9.312;2023-02-05T00:47:24;3.40;99.90
18173;DHT22;9211;48.818;9.312;2023-02-05T00:49:51;3.50;99.90
18173;DHT22;9211;48.818;9.312;2023-02-05T00:52:18;3.50;99.90
18173;DHT22;9211;48.818;9.312;2023-02-05T00:54:45;3.50;99.90
18173;DHT22;9211;48.818;9.312;2023-02-05T00:57:12;3.50;99.90
18173;DHT22;9211;48.818;9.312;2023-02-05T00:59:40;3.50;99.90
18173;DHT22;9211;48.818;9.312;2023-02-05T01:02:07;3.50;99.90
18173;DHT22;9211;48.818;9.312;2023-02-05T01:04:34;3.50;99.90
18173;DHT22;9211;48.818;9.312;2023-02-05T01:07:01;3.40;99.90
18173;DHT22;9211;48.818;9.312;2023-02-05T01:09:28;3.40;99.90
18173;DHT22;9211;48.818;9.312;2023-02-05T01:11:55;3.40;99.90
18173;DHT22;9211;48.818;9.312;2023-02-05T01:14:21;3.30;99.90
18173;DHT22;9211;48.818;9.312;2023-02-05T01:16:50;3.40;99.90
18173;DHT22;9211;48.818;9.312;2023-02-05T01:19:17;3.40;99.90
18173;DHT22;9211;48.818;9.312;2023-02-05T01:21:44;3.40;99.90
18173;DHT22;9211;48.818;9.312;2023-02-05T01:24:10;3.40;99.90
18173;DHT22;9211;48.818;9.312;2023-02-05T01:26:38;3.50;99.90
18173;DHT22;9211;48.818;9.312;2023-02-05T01:29:07;3.40;99.90
18173;DHT22;9211;48.818;9.312;2023-02-05T01:31:34;3.40;99.90
18173;DHT22;9211;48.818;9.312;2023-02-05T01:34:02;3.40;99.90
18173;DHT22;9211;48.818;9.312;2023-02-05T01:36:29;3.40;99.90
18173;DHT22;9211;48.818;9.312;2023-02-05T01:38:56;3.40;99.90
18173;DHT22;9211;48.818;9.312;2023-02-05T01:41:23;3.30;99.90
18173;DHT22;9211;48.818;9.312;2023-02-05T01:44:05;3.40;99.90
18173;DHT22;9211;48.818;9.312;2023-02-05T01:46:34;3.40;99.90
18173;DHT22;9211;48.818;9.312;2023-02-05T01:49:05;3.40;99.90
18173;DHT22;9211;48.818;9.312;2023-02-05T01:51:34;3.30;99.90
18173;DHT22;9211;48.818;9.312;2023-02-05T01:54:04;3.30;99.90
18173;DHT22;9211;48.818;9.312;2023-02-05T01:56:35;3.30;99.90
18173;DHT22;9211;48.818;9.312;2023-02-05T01:59:05;3.40;99.90
18173;DHT22;9211;48.818;9.312;2023-02-05T02:01:33;3.40;99.90
18173;DHT22;9211;48.818;9.312;2023-02-05T02:04:03;3.40;99.90
18173;DHT22;9211;48.818;9.312;2023-02-05T02:06:32;3.30;99.90
18173;DHT22;9211;48.818;9.312;2023-02-05T02:09:01;3.30;99.90
18173;DHT22;9211;48.818;9.312;2023-02-05T02:11:31;3.30;99.90
18173;DHT22;9211;48.818;9.312;2023-02-05T02:14:00;3.30;99.90
18173;DHT22;9211;48.818;9.312;2023-02-05T02:16:32;3.30;99.90
18173;DHT22;9211;48.818;9.312;2023-02-05T02:19:01;3.30;99.90
18173;DHT22;9211;48.818;9.312;2023-02-05T02:21:49;3.30;99.90
18173;DHT22;9211;48.818;9.312;2023-02-05T02:24:42;3.20;99.90
18173;DHT22;9211;48.818;9.312;2023-02-05T02:27:34;3.20;99.90
18173;DHT22;9211;48.818;9.312;2023-02-05T02:30:08;3.20;99.90
18173;DHT22;9211;48.818;9.312;2023-02-05T02:32:40;3.10;99.90
18173;DHT22;9211;48.818;9.312;2023-02-05T02:35:15;3.20;99.90
18173;DHT22;9211;48.818;9.312;2023-02-05T02:37:48;3.20;99.90
18173;DHT22;9211;48.818;9.312;2023-02-05T02:40:20;3.30;99.90
18173;DHT22;9211;48.818;9.312;2023-02-05T02:42:55;3.30;99.90
18173;DHT22;9211;48.818;9.312;2023-02-05T02:45:26;3.20;99.90
18173;DHT22;9211;48.818;9.312;2023-02-05T02:47:57;3.20;99.90
18173;DHT22;9211;48.818;9.312;2023-02-05T02:50:27;3.30;99.90
18173;DHT22;9211;48.818;9.312;2023-02-05T02:53:01;3.30;99.90
18173;DHT22;9211;48.818;9.312;2023-02-05T02:55:32;3.20;99.90
18173;DHT22;9211;48.818;9.312;2023-02-05T02:58:03;3.20;99.90
18173;DHT22;9211;48.818;9.312;2023-02-05T03:03:15;3.20;99.90
18173;DHT22;9211;48.818;9.312;2023-02-05T03:05:47;3.20;99.90
18173;DHT22;9211;48.818;9.312;2023-02-05T03:08:18;3.20;99.90
18173;DHT22;9211;48.818;9.312;2023-02-05T03:10:49;3.20;99.90
18173;DHT22;9211;48.818;9.312;2023-02-05T03:13:20;3.30;99.90
18173;DHT22;9211;48.818;9.312;2023-02-05T03:15:54;3.20;99.90
18173;DHT22;9211;48.818;9.312;2023-02-05T03:18:22;3.20;99.90
18173;DHT22;9211;48.818;9.312;2023-02-05T03:20:52;3.20;99.90
18173;DHT22;9211;48.818;9.312;2023-02-05T03:23:19;3.20;99.90
18173;DHT22;9211;48.818;9.312;2023-02-05T03:25:47;3.20;99.90
18173;DHT22;9211;48.818;9.312;2023-02-05T03:28:17;3.20;99.90
18173;DHT22;9211;48.818;9.312;2023-02-05T03:30:54;3.10;99.90
18173;DHT22;9211;48.818;9.312;2023-02-05T03:33:38;3.10;99.90
18173;DHT22;9211;48.818;9.312;2023-02-05T03:36:12;3.20;99.90
18173;DHT22;9211;48.818;9.312;2023-02-05T03:38:53;3.20;99.90
18173;DHT22;9211;48.818;9.312;2023-02-05T03:41:33;3.10;99.90
18173;DHT22;9211;48.818;9.312;2023-02-05T03:44:58;3.10;99.90
18173;DHT22;9211;48.818;9.312;2023-02-05T03:47:39;3.00;99.90
18173;DHT22;9211;48.818;9.312;2023-02-05T03:50:14;3.00;99.90
18173;DHT22;9211;48.818;9.312;2023-02-05T03:52:47;3.00;99.90
18173;DHT22;9211;48.818;9.312;2023-02-05T03:55:18;3.00;99.90
18173;DHT22;9211;48.818;9.312;2023-02-05T03:57:50;3.00;99.90
18173;DHT22;9211;48.818;9.312;2023-02-05T04:00:19;3.00;99.90
18173;DHT22;9211;48.818;9.312;2023-02-05T04:02:52;3.10;99.90
18173;DHT22;9211;48.818;9.312;2023-02-05T04:05:24;3.10;99.90
18173;DHT22;9211;48.818;9.312;2023-02-05T04:07:53;3.10;99.90
18173;DHT22;9211;48.818;9.312;2023-02-05T04:10:24;3.00;99.90
18173;DHT22;9211;48.818;9.312;2023-02-05T04:12:51;2.90;99.90
18173;DHT22;9211;48.818;9.312;2023-02-05T04:15:18;2.90;99.90
18173;DHT22;9211;48.818;9.312;2023-02-05T04:17:52;2.90;99.90
18173;DHT22;9211;48.818;9.312;2023-02-05T04:20:19;2.90;99.90
18173;DHT22;9211;48.818;9.312;2023-02-05T04:22:46;2.90;99.90
18173;DHT22;9211;48.818;9.312;2023-02-05T04:25:14;3.00;99.90
18173;DHT22;9211;48.818;9.312;2023-02-05T04:27:42;3.00;99.90
18173;DHT22;9211;48.818;9.312;2023-02-05T04:30:10;3.00;99.90
18173;DHT22;9211;48.818;9.312;2023-02-05T04:32:42;2.90;99.90
18173;DHT22;9211;48.818;9.312;2023-02-05T04:35:11;2.90;99.90
18173;DHT22;9211;48.818;9.312;2023-02-05T04:37:38;2.80;99.90
18173;DHT22;9211;48.818;9.312;2023-02-05T04:40:07;2.80;99.90
18173;DHT22;9211;48.818;9.312;2023-02-05T04:42:34;2.80;99.90
18173;DHT22;9211;48.818;9.312;2023-02-05T04:45:01;2.70;99.90
18173;DHT22;9211;48.818;9.312;2023-02-05T04:47:30;2.60;99.90
18173;DHT22;9211;48.818;9.312;2023-02-05T04:49:57;2.60;99.90
18173;DHT22;9211;48.818;9.312;2023-02-05T04:52:26;2.60;99.90
18173;DHT22;9211;48.818;9.312;2023-02-05T04:54:53;2.50;99.90
18173;DHT22;9211;48.818;9.312;2023-02-05T04:57:20;2.50;99.90
18173;DHT22;9211;48.818;9.312;2023-02-05T04:59:49;2.50;99.90
18173;DHT22;9211;48.818;9.312;2023-02-05T05:02:16;2.50;99.90
18173;DHT22;9211;48.818;9.312;2023-02-05T05:04:43;2.50;99.90
18173;DHT22;9211;48.818;9.312;2023-02-05T05:07:10;2.40;99.90
18173;DHT22;9211;48.818;9.312;2023-02-05T05:09:38;2.40;99.90
18173;DHT22;9211;48.818;9.312;2023-02-05T05:12:05;2.40;99.90
18173;DHT22;9211;48.818;9.312;2023-02-05T05:14:32;2.30;99.90
18173;DHT22;9211;48.818;9.312;2023-02-05T05:16:59;2.20;99.90
18173;DHT22;9211;48.818;9.312;2023-02-05T05:19:26;2.20;99.90
18173;DHT22;9211;48.818;9.312;2023-02-05T05:21:53;2.20;99.90
18173;DHT22;9211;48.818;9.312;2023-02-05T05:24:20;2.20;99.90
18173;DHT22;9211;48.818;9.312;2023-02-05T05:26:48;2.20;99.90
18173;DHT22;9211;48.818;9.312;2023-02-05T05:29:15;2.10;99.90
18173;DHT22;9211;48.818;9.312;2023-02-05T05:31:42;2.20;99.90
18173;DHT22;9211;48.818;9.312;2023-02-05T05:34:09;2.20;99.90
18173;DHT22;9211;48.818;9.312;2023-02-05T05:36:36;2.20;99.90
18173;DHT22;9211;48.818;9.312;2023-02-05T05:39:04;2.10;99.90
18173;DHT22;9211;48.818;9.312;2023-02-05T05:41:45;2.10;99.90
18173;DHT22;9211;48.818;9.312;2023-02-05T05:44:45;2.20;99.90
18173;DHT22;9211;48.818;9.312;2023-02-05T05:47:16;2.20;99.90
18173;DHT22;9211;48.818;9.312;2023-02-05T05:49:43;2.20;99.90
18173;DHT22;9211;48.818;9.312;2023-02-05T05:52:10;2.20;99.90
18173;DHT22;9211;48.818;9.312;2023-02-05T05:54:38;2.20;99.90
18173;DHT22;9211;48.818;9.312;2023-02-05T05:57:06;2.20;99.90
18173;DHT22;9211;48.818;9.312;2023-02-05T05:59:33;2.30;99.90
18173;DHT22;9211;48.818;9.312;2023-02-05T06:02:02;2.30;99.90
18173;DHT22;9211;48.818;9.312;2023-02-05T06:04:29;2.30;99.90
18173;DHT22;9211;48.818;9.312;2023-02-05T06:06:56;2.20;99.90
18173;DHT22;9211;48.818;9.312;2023-02-05T06:09:23;2.30;99.90
18173;DHT22;9211;48.818;9.312;2023-02-05T06:11:50;2.20;99.90
18173;DHT22;9211;48.818;9.312;2023-02-05T06:14:17;2.30;99.90
18173;DHT22;9211;48.818;9.312;2023-02-05T06:16:44;2.40;99.90
18173;DHT22;9211;48.818;9.312;2023-02-05T06:19:12;2.40;99.90
18173;DHT22;9211;48.818;9.312;2023-02-05T06:21:39;2.50;99.90
18173;DHT22;9211;48.818;9.312;2023-02-05T06:24:06;2.60;99.90
18173;DHT22;9211;48.818;9.312;2023-02-05T06:26:33;2.50;99.90
18173;DHT22;9211;48.818;9.312;2023-02-05T06:29:00;2.50;99.90
18173;DHT22;9211;48.818;9.312;2023-02-05T06:31:28;2.50;99.90
18173;DHT22;9211;48.818;9.312;2023-02-05T06:33:55;2.50;99.90
18173;DHT22;9211;48.818;9.312;2023-02-05T06:36:24;2.50;99.90
18173;DHT22;9211;48.818;9.312;2023-02-05T06:38:51;2.50;99.90
18173;DHT22;9211;48.818;9.312;2023-02-05T06:41:18;2.50;99.90
18173;DHT22;9211;48.818;9.312;2023-02-05T06:43:44;2.40;99.90
18173;DHT22;9211;48.818;9.312;2023-02-05T06:46:11;2.40;99.90
18173;DHT22;9211;48.818;9.312;2023-02-05T06:48:38;2.40;99.90
18173;DHT22;9211;48.818;9.312;2023-02-05T06:51:05;2.40;99.90
18173;DHT22;9211;48.818;9.312;2023-02-05T06:53:34;2.40;99.90
18173;DHT22;9211;48.818;9.312;2023-02-05T06:56:00;2.40;99.90
18173;DHT22;9211;48.818;9.312;2023-02-05T06:58:27;2.40;99.90
18173;DHT22;9211;48.818;9.312;2023-02-05T07:00:54;2.40;99.90
18173;DHT22;9211;48.818;9.312;2023-02-05T07:03:21;2.40;99.90
18173;DHT22;9211;48.818;9.312;2023-02-05T07:05:48;2.40;99.90
18173;DHT22;9211;48.818;9.312;2023-02-05T07:08:16;2.40;99.90
18173;DHT22;9211;48.818;9.312;2023-02-05T07:10:44;2.40;99.90
18173;DHT22;9211;48.818;9.312;2023-02-05T07:13:11;2.50;99.90
18173;DHT22;9211;48.818;9.312;2023-02-05T07:15:38;2.60;99.90
18173;DHT22;9211;48.818;9.312;2023-02-05T07:18:05;2.70;99.90
18173;DHT22;9211;48.818;9.312;2023-02-05T07:20:32;2.70;99.90
18173;DHT22;9211;48.818;9.312;2023-02-05T07:22:59;2.80;99.90
18173;DHT22;9211;48.818;9.312;2023-02-05T07:25:26;2.70;99.90
18173;DHT22;9211;48.818;9.312;2023-02-05T07:27:54;2.70;99.90
18173;DHT22;9211;48.818;9.312;2023-02-05T07:30:21;2.70;99.90
18173;DHT22;9211;48.818;9.312;2023-02-05T07:32:48;2.70;99.90
18173;DHT22;9211;48.818;9.312;2023-02-05T07:35:15;2.80;99.90
18173;DHT22;9211;48.818;9.312;2023-02-05T07:37:42;2.80;99.90
18173;DHT22;9211;48.818;9.312;2023-02-05T07:40:10;2.70;99.90
18173;DHT22;9211;48.818;9.312;2023-02-05T07:42:37;2.70;99.90
18173;DHT22;9211;48.818;9.312;2023-02-05T07:45:08;2.80;99.90
18173;DHT22;9211;48.818;9.312;2023-02-05T07:47:35;2.80;99.90
18173;DHT22;9211;48.818;9.312;2023-02-05T07:50:03;2.90;99.90
18173;DHT22;9211;48.818;9.312;2023-02-05T07:52:30;3.00;99.90
18173;DHT22;9211;48.818;9.312;2023-02-05T07:54:57;3.00;99.90
18173;DHT22;9211;48.818;9.312;2023-02-05T07:57:24;3.00;99.90
18173;DHT22;9211;48.818;9.312;2023-02-05T07:59:52;3.00;99.90
18173;DHT22;9211;48.818;9.312;2023-02-05T08:02:20;3.10;99.90
18173;DHT22;9211;48.818;9.312;2023-02-05T08:04:47;3.10;99.90
18173;DHT22;9211;48.818;9.312;2023-02-05T08:07:14;3.10;99.90
18173;DHT22;9211;48.818;9.312;2023-02-05T08:09:41;3.10;99.90
18173;DHT22;9211;48.818;9.312;2023-02-05T08:12:08;3.10;99.90
18173;DHT22;9211;48.818;9.312;2023-02-05T08:14:38;3.10;99.90
18173;DHT22;9211;48.818;9.312;2023-02-05T08:17:05;3.10;99.90
18173;DHT22;9211;48.818;9.312;2023-02-05T08:19:33;3.10;99.90
18173;DHT22;9211;48.818;9.312;2023-02-05T08:22:00;3.20;99.90
18173;DHT22;9211;48.818;9.312;2023-02-05T08:24:27;3.30;99.90
18173;DHT22;9211;48.818;9.312;2023-02-05T08:26:56;3.30;99.90
18173;DHT22;9211;48.818;9.312;2023-02-05T08:29:23;3.30;99.90
18173;DHT22;9211;48.818;9.312;2023-02-05T08:31:50;3.30;99.90
18173;DHT22;9211;48.818;9.312;2023-02-05T08:34:17;3.40;99.90
18173;DHT22;9211;48.818;9.312;2023-02-05T08:36:45;3.40;99.90
18173;DHT22;9211;48.818;9.312;2023-02-05T08:39:12;3.40;99.90
18173;DHT22;9211;48.818;9.312;2023-02-05T08:41:39;3.50;99.90
18173;DHT22;9211;48.818;9.312;2023-02-05T08:44:06;3.50;99.90
18173;DHT22;9211;48.818;9.312;2023-02-05T08:46:33;3.60;99.90
18173;DHT22;9211;48.818;9.312;2023-02-05T08:49:00;3.60;99.90
18173;DHT22;9211;48.818;9.312;2023-02-05T08:51:27;3.60;99.90
18173;DHT22;9211;48.818;9.312;2023-02-05T08:53:55;3.70;99.90
18173;DHT22;9211;48.818;9.312;2023-02-05T08:56:22;3.70;99.90
18173;DHT22;9211;48.818;9.312;2023-02-05T08:58:49;3.70;99.90
18173;DHT22;9211;48.818;9.312;2023-02-05T09:01:16;3.80;99.90
18173;DHT22;9211;48.818;9.312;2023-02-05T09:03:44;3.80;99.90
18173;DHT22;9211;48.818;9.312;2023-02-05T09:06:12;3.80;99.90
18173;DHT22;9211;48.818;9.312;2023-02-05T09:08:40;3.90;99.90
18173;DHT22;9211;48.818;9.312;2023-02-05T09:11:09;3.90;99.90
18173;DHT22;9211;48.818;9.312;2023-02-05T09:13:38;3.90;99.90
18173;DHT22;9211;48.818;9.312;2023-02-05T09:16:08;4.00;99.90
18173;DHT22;9211;48.818;9.312;2023-02-05T09:18:35;4.10;99.90
18173;DHT22;9211;48.818;9.312;2023-02-05T09:21:05;4.10;99.90
18173;DHT22;9211;48.818;9.312;2023-02-05T09:23:33;4.00;99.90
18173;DHT22;9211;48.818;9.312;2023-02-05T09:25:59;3.90;99.90
18173;DHT22;9211;48.818;9.312;2023-02-05T09:28:28;4.00;99.90
18173;DHT22;9211;48.818;9.312;2023-02-05T09:30:55;4.00;99.90
18173;DHT22;9211;48.818;9.312;2023-02-05T09:33:22;4.00;99.90
18173;DHT22;9211;48.818;9.312;2023-02-05T09:35:49;4.00;99.90
18173;DHT22;9211;48.818;9.312;2023-02-05T09:38:16;4.00;99.90
18173;DHT22;9211;48.818;9.312;2023-02-05T09:40:51;4.00;99.90
18173;DHT22;9211;48.818;9.312;2023-02-05T09:43:32;4.00;99.90
18173;DHT22;9211;48.818;9.312;2023-02-05T09:46:07;4.00;99.90
18173;DHT22;9211;48.818;9.312;2023-02-05T09:48:46;4.00;99.90
18173;DHT22;9211;48.818;9.312;2023-02-05T09:51:21;4.00;99.90
18173;DHT22;9211;48.818;9.312;2023-02-05T09:53:54;4.10;99.90
18173;DHT22;9211;48.818;9.312;2023-02-05T09:56:23;4.10;99.90
18173;DHT22;9211;48.818;9.312;2023-02-05T09:58:53;4.10;99.90
18173;DHT22;9211;48.818;9.312;2023-02-05T10:01:27;4.10;99.90
18173;DHT22;9211;48.818;9.312;2023-02-05T10:03:57;4.10;99.90
18173;DHT22;9211;48.818;9.312;2023-02-05T10:09:31;4.20;99.90
18173;DHT22;9211;48.818;9.312;2023-02-05T10:12:12;4.20;99.90
18173;DHT22;9211;48.818;9.312;2023-02-05T10:14:47;4.20;99.90
18173;DHT22;9211;48.818;9.312;2023-02-05T10:17:32;4.20;99.90
18173;DHT22;9211;48.818;9.312;2023-02-05T10:20:21;4.30;99.90
18173;DHT22;9211;48.818;9.312;2023-02-05T10:23:10;4.30;99.90
18173;DHT22;9211;48.818;9.312;2023-02-05T10:25:59;4.30;99.90
18173;DHT22;9211;48.818;9.312;2023-02-05T10:31:32;4.30;99.90
18173;DHT22;9211;48.818;9.312;2023-02-05T10:34:15;4.30;99.90
18173;DHT22;9211;48.818;9.312;2023-02-05T10:36:43;4.30;99.90
18173;DHT22;9211;48.818;9.312;2023-02-05T10:39:13;4.40;99.90
18173;DHT22;9211;48.818;9.312;2023-02-05T10:41:50;4.40;99.90
18173;DHT22;9211;48.818;9.312;2023-02-05T10:44:24;4.40;99.90
18173;DHT22;9211;48.818;9.312;2023-02-05T10:46:59;4.30;99.90
18173;DHT22;9211;48.818;9.312;2023-02-05T10:49:39;4.40;99.90
18173;DHT22;9211;48.818;9.312;2023-02-05T10:52:11;4.40;99.90
18173;DHT22;9211;48.818;9.312;2023-02-05T10:54:38;4.40;99.90
18173;DHT22;9211;48.818;9.312;2023-02-05T10:57:11;4.50;99.90
18173;DHT22;9211;48.818;9.312;2023-02-05T10:59:47;4.60;99.90
18173;DHT22;9211;48.818;9.312;2023-02-05T11:02:16;4.70;99.90
18173;DHT22;9211;48.818;9.312;2023-02-05T11:04:46;4.80;99.90
18173;DHT22;9211;48.818;9.312;2023-02-05T11:07:20;4.80;99.90
18173;DHT22;9211;48.818;9.312;2023-02-05T11:09:49;4.80;99.90
18173;DHT22;9211;48.818;9.312;2023-02-05T11:12:21;5.00;99.90
18173;DHT22;9211;48.818;9.312;2023-02-05T11:14:55;4.90;99.90
18173;DHT22;9211;48.818;9.312;2023-02-05T11:17:27;4.90;99.90
18173;DHT22;9211;48.818;9.312;2023-02-05T11:19:59;5.00;99.90
18173;DHT22;9211;48.818;9.312;2023-02-05T11:22:27;5.00;99.90
18173;DHT22;9211;48.818;9.312;2023-02-05T11:25:05;5.00;99.90
18173;DHT22;9211;48.818;9.312;2023-02-05T11:27:34;5.00;99.90
18173;DHT22;9211;48.818;9.312;2023-02-05T11:30:17;5.00;99.90
18173;DHT22;9211;48.818;9.312;2023-02-05T11:32:46;5.00;99.90
18173;DHT22;9211;48.818;9.312;2023-02-05T11:35:19;5.10;99.90
18173;DHT22;9211;48.818;9.312;2023-02-05T11:37:50;5.10;99.90
18173;DHT22;9211;48.818;9.312;2023-02-05T11:40:21;5.10;99.90
18173;DHT22;9211;48.818;9.312;2023-02-05T11:43:02;5.10;99.90
18173;DHT22;9211;48.818;9.312;2023-02-05T11:45:31;5.20;99.90
18173;DHT22;9211;48.818;9.312;2023-02-05T11:48:03;5.10;99.90
18173;DHT22;9211;48.818;9.312;2023-02-05T11:50:32;5.20;99.90
18173;DHT22;9211;48.818;9.312;2023-02-05T11:53:10;5.30;99.90
18173;DHT22;9211;48.818;9.312;2023-02-05T11:55:42;5.30;99.90
18173;DHT22;9211;48.818;9.312;2023-02-05T11:58:19;5.30;99.90
18173;DHT22;9211;48.818;9.312;2023-02-05T12:00:51;5.30;99.90
18173;DHT22;9211;48.818;9.312;2023-02-05T12:03:24;5.20;99.90
18173;DHT22;9211;48.818;9.312;2023-02-05T12:06:01;5.20;99.90
18173;DHT22;9211;48.818;9.312;2023-02-05T12:08:35;5.20;99.90
18173;DHT22;9211;48.818;9.312;2023-02-05T12:11:14;5.30;99.90
18173;DHT22;9211;48.818;9.312;2023-02-05T12:13:50;5.30;99.90
18173;DHT22;9211;48.818;9.312;2023-02-05T12:16:29;5.40;99.90
18173;DHT22;9211;48.818;9.312;2023-02-05T12:19:04;5.30;99.90
18173;DHT22;9211;48.818;9.312;2023-02-05T12:21:46;5.40;99.90
18173;DHT22;9211;48.818;9.312;2023-02-05T12:27:29;5.40;99.90
18173;DHT22;9211;48.818;9.312;2023-02-05T12:30:16;5.40;99.90
18173;DHT22;9211;48.818;9.312;2023-02-05T12:32:54;5.50;99.90
18173;DHT22;9211;48.818;9.312;2023-02-05T12:35:48;5.50;99.90
18173;DHT22;9211;48.818;9.312;2023-02-05T12:38:23;5.50;99.90
18173;DHT22;9211;48.818;9.312;2023-02-05T12:41:02;5.40;99.90
18173;DHT22;9211;48.818;9.312;2023-02-05T12:43:37;5.40;99.90
18173;DHT22;9211;48.818;9.312;2023-02-05T12:46:20;5.30;99.90
18173;DHT22;9211;48.818;9.312;2023-02-05T12:49:00;5.20;99.90
18173;DHT22;9211;48.818;9.312;2023-02-05T12:51:42;5.20;99.90
18173;DHT22;9211;48.818;9.312;2023-02-05T12:54:39;5.20;99.90
18173;DHT22;9211;48.818;9.312;2023-02-05T12:57:10;5.10;99.90
18173;DHT22;9211;48.818;9.312;2023-02-05T12:59:41;5.10;99.90
18173;DHT22;9211;48.818;9.312;2023-02-05T13:02:18;5.10;99.90
18173;DHT22;9211;48.818;9.312;2023-02-05T13:04:50;5.10;99.90
18173;DHT22;9211;48.818;9.312;2023-02-05T13:07:28;5.10;99.90
18173;DHT22;9211;48.818;9.312;2023-02-05T13:09:59;5.10;99.90
18173;DHT22;9211;48.818;9.312;2023-02-05T13:12:31;5.10;99.90
18173;DHT22;9211;48.818;9.312;2023-02-05T13:15:06;5.20;99.90
18173;DHT22;9211;48.818;9.312;2023-02-05T13:17:39;5.20;99.90
18173;DHT22;9211;48.818;9.312;2023-02-05T13:20:17;5.20;99.90
18173;DHT22;9211;48.818;9.312;2023-02-05T13:22:52;5.20;99.90
18173;DHT22;9211;48.818;9.312;2023-02-05T13:25:39;5.30;99.90
18173;DHT22;9211;48.818;9.312;2023-02-05T13:28:33;5.20;99.90
18173;DHT22;9211;48.818;9.312;2023-02-05T13:31:20;5.20;99.90
18173;DHT22;9211;48.818;9.312;2023-02-05T13:33:49;5.20;99.90
18173;DHT22;9211;48.818;9.312;2023-02-05T13:36:58;5.20;99.90
18173;DHT22;9211;48.818;9.312;2023-02-05T13:39:52;5.20;99.90
18173;DHT22;9211;48.818;9.312;2023-02-05T13:48:48;5.30;99.90
18173;DHT22;9211;48.818;9.312;2023-02-05T13:54:52;5.30;99.90
18173;DHT22;9211;48.818;9.312;2023-02-05T14:00:54;5.30;99.90
18173;DHT22;9211;48.818;9.312;2023-02-05T14:03:28;5.30;99.90
18173;DHT22;9211;48.818;9.312;2023-02-05T14:06:11;5.30;99.90
18173;DHT22;9211;48.818;9.312;2023-02-05T14:08:39;5.30;99.90
18173;DHT22;9211;48.818;9.312;2023-02-05T14:11:08;5.30;99.90
18173;DHT22;9211;48.818;9.312;2023-02-05T14:13:35;5.30;99.90
18173;DHT22;9211;48.818;9.312;2023-02-05T14:16:31;5.30;99.90
18173;DHT22;9211;48.818;9.312;2023-02-05T14:19:19;5.30;99.90
18173;DHT22;9211;48.818;9.312;2023-02-05T14:22:09;5.40;99.90
18173;DHT22;9211;48.818;9.312;2023-02-05T14:24:40;5.30;99.90
18173;DHT22;9211;48.818;9.312;2023-02-05T14:30:48;5.20;99.90
18173;DHT22;9211;48.818;9.312;2023-02-05T14:33:36;5.10;99.90
18173;DHT22;9211;48.818;9.312;2023-02-05T14:36:31;5.00;99.90
18173;DHT22;9211;48.818;9.312;2023-02-05T14:39:00;5.00;99.90
18173;DHT22;9211;48.818;9.312;2023-02-05T14:41:30;5.00;99.90
18173;DHT22;9211;48.818;9.312;2023-02-05T14:44:02;5.00;99.90
18173;DHT22;9211;48.818;9.312;2023-02-05T14:46:32;4.90;99.90
18173;DHT22;9211;48.818;9.312;2023-02-05T14:49:03;4.80;99.90
18173;DHT22;9211;48.818;9.312;2023-02-05T14:51:35;4.80;99.90
18173;DHT22;9211;48.818;9.312;2023-02-05T14:54:05;4.80;99.90
18173;DHT22;9211;48.818;9.312;2023-02-05T14:56:38;4.90;99.90
18173;DHT22;9211;48.818;9.312;2023-02-05T14:59:20;4.90;99.90
18173;DHT22;9211;48.818;9.312;2023-02-05T15:01:48;4.80;99.90
18173;DHT22;9211;48.818;9.312;2023-02-05T15:04:38;4.80;99.90
18173;DHT22;9211;48.818;9.312;2023-02-05T15:07:12;4.80;99.90
18173;DHT22;9211;48.818;9.312;2023-02-05T15:09:45;4.80;99.90
18173;DHT22;9211;48.818;9.312;2023-02-05T15:12:51;4.70;99.90
18173;DHT22;9211;48.818;9.312;2023-02-05T15:15:31;4.80;99.90
18173;DHT22;9211;48.818;9.312;2023-02-05T15:18:12;4.90;99.90
18173;DHT22;9211;48.818;9.312;2023-02-05T15:20:44;4.90;99.90
18173;DHT22;9211;48.818;9.312;2023-02-05T15:23:31;4.80;99.90
18173;DHT22;9211;48.818;9.312;2023-02-05T15:26:01;4.80;99.90
18173;DHT22;9211;48.818;9.312;2023-02-05T15:28:32;4.90;99.90
18173;DHT22;9211;48.818;9.312;2023-02-05T15:31:17;4.90;99.90
18173;DHT22;9211;48.818;9.312;2023-02-05T15:33:53;4.90;99.90
18173;DHT22;9211;48.818;9.312;2023-02-05T15:36:29;4.80;99.90
18173;DHT22;9211;48.818;9.312;2023-02-05T15:39:13;4.80;99.90
18173;DHT22;9211;48.818;9.312;2023-02-05T15:41:43;4.80;99.90
18173;DHT22;9211;48.818;9.312;2023-02-05T15:44:20;4.80;99.90
18173;DHT22;9211;48.818;9.312;2023-02-05T15:46:49;4.80;99.90
18173;DHT22;9211;48.818;9.312;2023-02-05T15:49:19;4.80;99.90
18173;DHT22;9211;48.818;9.312;2023-02-05T15:51:48;4.80;99.90
18173;DHT22;9211;48.818;9.312;2023-02-05T15:54:18;4.80;99.90
18173;DHT22;9211;48.818;9.312;2023-02-05T15:56:49;4.70;99.90
18173;DHT22;9211;48.818;9.312;2023-02-05T15:59:19;4.70;99.90
18173;DHT22;9211;48.818;9.312;2023-02-05T16:01:50;4.80;99.90
18173;DHT22;9211;48.818;9.312;2023-02-05T16:04:27;4.70;99.90
18173;DHT22;9211;48.818;9.312;2023-02-05T16:06:54;4.70;99.90
18173;DHT22;9211;48.818;9.312;2023-02-05T16:09:23;4.70;99.90
18173;DHT22;9211;48.818;9.312;2023-02-05T16:11:50;4.70;99.90
18173;DHT22;9211;48.818;9.312;2023-02-05T16:14:19;4.90;99.90
18173;DHT22;9211;48.818;9.312;2023-02-05T16:16:56;4.80;99.90
18173;DHT22;9211;48.818;9.312;2023-02-05T16:19:26;4.80;99.90
18173;DHT22;9211;48.818;9.312;2023-02-05T16:21:58;4.80;99.90
18173;DHT22;9211;48.818;9.312;2023-02-05T16:24:30;4.80;99.90
18173;DHT22;9211;48.818;9.312;2023-02-05T16:27:03;4.80;99.90
18173;DHT22;9211;48.818;9.312;2023-02-05T16:29:36;4.80;99.90
18173;DHT22;9211;48.818;9.312;2023-02-05T16:32:13;4.80;99.90
18173;DHT22;9211;48.818;9.312;2023-02-05T16:34:44;4.80;99.90
18173;DHT22;9211;48.818;9.312;2023-02-05T16:37:15;4.70;99.90
18173;DHT22;9211;48.818;9.312;2023-02-05T16:39:45;4.70;99.90
18173;DHT22;9211;48.818;9.312;2023-02-05T16:42:28;4.70;99.90
18173;DHT22;9211;48.818;9.312;2023-02-05T16:45:07;4.70;99.90
18173;DHT22;9211;48.818;9.312;2023-02-05T16:47:41;4.70;99.90
18173;DHT22;9211;48.818;9.312;2023-02-05T16:50:33;4.70;99.90
18173;DHT22;9211;48.818;9.312;2023-02-05T16:53:02;4.70;99.90
18173;DHT22;9211;48.818;9.312;2023-02-05T16:55:40;4.70;99.90
18173;DHT22;9211;48.818;9.312;2023-02-05T16:58:14;4.70;99.90
18173;DHT22;9211;48.818;9.312;2023-02-05T17:00:50;4.70;99.90